Flight Track Log - Related Links

Times and Time Zones

All times are in EDT time to prevent confusion due to time zone crossing. See the UAL4543 flight status page for this flight to view local times or setup timezone preferences in your user account.

Time Position Orientation Groundspeed Altitude Reporting Facility
EDT Latitude Longitude Course Direction KTS MPH feet Rate Location/Type
Wed 09:31:52 PM 40.6833 -74.1833 287° West 142 163 500  Level New York TRACON
Wed 09:32:52 PM 40.6333 -74.2000 194° South 187 215 2,300 1,900 Climbing New York TRACON
Wed 09:33:52 PM 40.6667 -74.2667 303° West 224 258 4,300 2,100 Climbing New York TRACON
Wed 09:34:52 PM 40.6833 -74.3500 285° West 229 264 6,500 1,905 Climbing New York TRACON
Wed 09:35:00 PM 40.7913 -74.6351 284° West  Level FlightAware Approximate
Wed 09:35:58 PM 40.7167 -74.4333 298° West 250 288 8,300  Level New York TRACON
Wed 09:36:00 PM 40.8166 -74.7552 287° West  Level FlightAware Approximate
Wed 09:36:52 PM 40.7333 -74.5167 285° West 265 305 10,100  Level New York TRACON
Wed 09:37:00 PM 40.8441 -74.8745 287° West  Level FlightAware Approximate
Wed 09:37:58 PM 40.7667 -74.6167 294° West 286 329 11,700  Level New York TRACON
Wed 09:39:04 PM 40.7939 -74.7100 291° West 287 330 13,700 1,323 Climbing New York Center
Wed 09:40:05 PM 40.8236 -74.8186 290° West 288 331 14,500 756 Climbing New York Center
Wed 09:41:03 PM 40.8531 -74.9300 289° West 311 358 15,200 756 Climbing New York Center
Wed 09:42:04 PM 40.8864 -75.0472 291° West 334 384 16,000 885 Climbing New York Center
Wed 09:43:05 PM 40.9114 -75.1561 287° West 340 391 17,000 992 Climbing New York Center
Wed 09:44:05 PM 40.8897 -75.2892 258° West 335 386 18,000 1,068 Climbing New York Center
Wed 09:45:03 PM 40.8689 -75.3975 256° West 340 391 19,100 1,261 Climbing New York Center
Wed 09:46:04 PM 40.8414 -75.5136 253° West 340 391 20,500 1,475 Climbing New York Center
Wed 09:47:05 PM 40.8139 -75.6242 252° West 335 386 22,100 1,361 Climbing New York Center
Wed 09:48:03 PM 40.7883 -75.7375 253° West 330 380 23,200 1,059 Climbing New York Center
Wed 09:49:04 PM 40.7608 -75.8478 252° West 325 374 24,200 1,033 Climbing New York Center
Wed 09:50:05 PM 40.7306 -75.9689 252° West 325 374 25,300 1,041 Climbing New York Center
Wed 09:51:05 PM 40.7047 -76.0792 253° West 319 367 26,300 1,017 Climbing New York Center
Wed 09:52:03 PM 40.6789 -76.1892 253° West 319 367 27,300 864 Climbing New York Center
Wed 09:53:03 PM 40.6736 -76.3064 267° West 314 361 28,000 850 Climbing New York Center
Wed 09:54:03 PM 40.6908 -76.4228 281° West 314 361 29,000 1,131 Climbing New York Center
Wed 09:55:05 PM 40.7103 -76.5422 282° West 326 375 30,300 1,339 Climbing New York Center
Wed 09:56:04 PM 40.7278 -76.6533 282° West 326 375 31,700 1,400 Climbing New York Center
Wed 09:57:05 PM 40.7431 -76.7642 280° West 316 364 33,100 1,240 Climbing New York Center
Wed 09:58:05 PM 40.7564 -76.8694 280° West 316 364 34,200 1,128 Climbing New York Center
Wed 09:59:02 PM 40.7719 -76.9722 281° West 300 345 35,300 864 Climbing New York Center
Wed 10:00:03 PM 40.7872 -77.0750 281° West 293 337 35,900 344 Climbing New York Center
Wed 10:01:04 PM 40.8025 -77.1808 281° West 288 331 36,000 45 Climbing New York Center
Wed 10:02:17 PM 40.8222 -77.3142 281° West 298 343 36,000  Level New York Center
Wed 10:03:15 PM 40.8392 -77.4203 282° West 314 361 36,000  Level New York Center
Wed 10:04:15 PM 40.8553 -77.5425 280° West 332 382 36,000  Level New York Center
Wed 10:05:50 PM 40.8803 -77.7406 280° West 365 420 36,000  Level Cleveland Center
Wed 10:06:50 PM 40.8958 -77.8636 280° West 365 420 36,000  Level Cleveland Center
Wed 10:07:50 PM 40.9156 -77.9919 282° West 360 414 36,000  Level Cleveland Center
Wed 10:08:50 PM 40.9306 -78.1150 279° West 355 409 36,000  Level Cleveland Center
Wed 10:09:50 PM 40.9458 -78.2381 279° West 350 403 36,000  Level Cleveland Center
Wed 10:10:50 PM 40.9628 -78.3614 280° West 350 403 36,000  Level Cleveland Center
Wed 10:11:50 PM 40.9778 -78.4872 279° West 350 403 36,000  Level Cleveland Center
Wed 10:12:50 PM 40.9925 -78.6133 279° West 350 403 36,000  Level Cleveland Center
Wed 10:13:50 PM 41.0092 -78.7339 280° West 350 403 36,000  Level Cleveland Center
Wed 10:14:50 PM 41.0214 -78.8575 278° West 350 403 36,000  Level Cleveland Center
Wed 10:15:50 PM 41.0358 -78.9783 279° West 350 403 36,000  Level Cleveland Center
Wed 10:16:50 PM 41.0497 -79.0992 279° West 344 396 36,000  Level Cleveland Center
Wed 10:17:50 PM 41.0617 -79.2172 278° West 339 390 36,000  Level Cleveland Center
Wed 10:18:50 PM 41.0778 -79.3381 280° West 334 384 36,000  Level Cleveland Center
Wed 10:19:50 PM 41.0894 -79.4592 277° West 334 384 36,000  Level Cleveland Center
Wed 10:20:50 PM 41.1050 -79.5800 280° West 334 384 36,000  Level Cleveland Center
Wed 10:21:50 PM 41.1164 -79.6956 277° West 334 384 36,000  Level Cleveland Center
Wed 10:22:50 PM 41.1297 -79.8139 279° West 334 384 36,000  Level Cleveland Center
Wed 10:23:50 PM 41.1411 -79.9297 277° West 334 384 36,000  Level Cleveland Center
Wed 10:24:50 PM 41.1542 -80.0481 278° West 334 384 36,000  Level Cleveland Center
Wed 10:25:50 PM 41.1692 -80.1667 280° West 334 384 36,000  Level Cleveland Center
Wed 10:26:50 PM 41.1800 -80.2906 277° West 334 384 36,000  Level Cleveland Center
Wed 10:27:50 PM 41.1928 -80.4119 278° West 334 384 36,000  Level Cleveland Center
Wed 10:28:50 PM 41.2053 -80.5444 277° West 329 379 36,000  Level Cleveland Center
Wed 10:29:50 PM 41.2158 -80.6603 277° West 329 379 36,000  Level Cleveland Center
Wed 10:30:50 PM 41.2281 -80.7792 278° West 329 379 36,000  Level Cleveland Center
Wed 10:31:50 PM 41.2403 -80.9033 277° West 334 384 36,000  Level Cleveland Center
Wed 10:32:50 PM 41.2525 -81.0250 278° West 334 384 36,000  Level Cleveland Center
Wed 10:33:50 PM 41.2644 -81.1467 277° West 339 390 36,000  Level Cleveland Center
Wed 10:34:50 PM 41.2761 -81.2739 277° West 345 397 36,000  Level Cleveland Center
Wed 10:35:50 PM 41.2878 -81.4011 277° West 350 403 36,000  Level Cleveland Center
Wed 10:36:50 PM 41.3017 -81.5200 279° West 350 403 36,000  Level Cleveland Center
Wed 10:37:50 PM 41.3131 -81.6475 277° West 350 403 36,000  Level Cleveland Center
Wed 10:38:50 PM 41.3242 -81.7692 277° West 350 403 36,000  Level Cleveland Center
Wed 10:39:50 PM 41.3353 -81.8939 277° West 350 403 36,000  Level Cleveland Center
Wed 10:40:50 PM 41.3464 -82.0214 277° West 350 403 36,000  Level Cleveland Center
Wed 10:41:50 PM 41.3553 -82.1433 276° West 350 403 36,000  Level Cleveland Center
Wed 10:42:50 PM 41.3639 -82.2653 275° West 350 403 36,000  Level Cleveland Center
Wed 10:43:50 PM 41.3703 -82.3900 274° West 344 396 36,000  Level Cleveland Center
Wed 10:44:50 PM 41.3767 -82.5119 274° West 337 388 36,000  Level Cleveland Center
Wed 10:45:50 PM 41.3850 -82.6367 275° West 337 388 36,000  Level Cleveland Center
Wed 10:46:50 PM 41.3914 -82.7447 275° West 337 388 36,000  Level Cleveland Center
Wed 10:47:50 PM 41.3972 -82.8697 274° West 337 388 36,000  Level Cleveland Center
Wed 10:48:50 PM 41.4031 -82.9917 274° West 337 388 36,000  Level Cleveland Center
Wed 10:49:50 PM 41.4106 -83.1192 275° West 337 388 36,000  Level Cleveland Center
Wed 10:50:50 PM 41.4181 -83.2553 274° West 342 394 36,000  Level Cleveland Center
Wed 10:51:50 PM 41.4233 -83.3800 273° West 347 399 36,000  Level Cleveland Center
Wed 10:52:50 PM 41.4286 -83.5078 273° West 347 399 36,000  Level Cleveland Center
Wed 10:53:50 PM 41.4356 -83.6328 274° West 347 399 36,000  Level Cleveland Center
Wed 10:54:50 PM 41.4406 -83.7603 273° West 347 399 36,000  Level Cleveland Center
Wed 10:55:50 PM 41.4475 -83.8856 274° West 347 399 36,000  Level Cleveland Center
Wed 10:56:50 PM 41.4519 -84.0131 273° West 347 399 36,000  Level Cleveland Center
Wed 10:57:50 PM 41.4586 -84.1408 274° West 347 399 36,000  Level Cleveland Center
Wed 10:59:36 PM 41.4697 -84.3569 274° West 348 400 36,000  Level Chicago Center
Wed 11:00:38 PM 41.4742 -84.4861 273° West 348 400 36,000  Level Chicago Center
Wed 11:01:40 PM 41.4792 -84.6153 273° West 350 403 36,000  Level Chicago Center
Wed 11:02:40 PM 41.4842 -84.7450 273° West 350 403 36,000  Level Chicago Center
Wed 11:03:41 PM 41.4897 -84.8753 273° West 352 405 36,000  Level Chicago Center
Wed 11:04:42 PM 41.4944 -85.0075 273° West 355 409 36,000  Level Chicago Center
Wed 11:05:43 PM 41.4981 -85.1381 272° West 352 405 36,000  Level Chicago Center
Wed 11:06:45 PM 41.5033 -85.2722 273° West 358 412 36,000  Level Chicago Center
Wed 11:07:46 PM 41.5081 -85.4067 273° West 358 412 36,000  Level Chicago Center
Wed 11:08:47 PM 41.5122 -85.5411 272° West 356 410 36,000  Level Chicago Center
Wed 11:09:48 PM 41.5158 -85.7019 272° West 358 412 36,000  Level Chicago Center
Wed 11:10:49 PM 41.5194 -85.8367 272° West 361 415 36,000  Level Chicago Center
Wed 11:11:51 PM 41.5233 -85.9697 272° West 361 415 36,000  Level Chicago Center
Wed 11:12:52 PM 41.5261 -86.1042 272° West 361 415 36,000  Level Chicago Center
Wed 11:13:53 PM 41.5289 -86.2378 272° West 362 417 36,000  Level Chicago Center
Wed 11:14:54 PM 41.5314 -86.3725 271° West 364 419 36,000  Level Chicago Center
Wed 11:15:55 PM 41.5339 -86.5069 271° West 364 419 36,000  Level Chicago Center
Wed 11:16:56 PM 41.5344 -86.6428 270° West 366 421 36,000  Level Chicago Center
Wed 11:17:58 PM 41.5367 -86.7944 271° West 365 420 36,000  Level Chicago Center
Wed 11:18:59 PM 41.5383 -86.9292 271° West 366 421 36,000  Level Chicago Center
Wed 11:20:00 PM 41.5403 -87.0636 271° West 365 420 36,000  Level Chicago Center
Wed 11:21:01 PM 41.5414 -87.1986 271° West 366 421 36,000  Level Chicago Center
Wed 11:22:02 PM 41.5419 -87.3336 270° West 366 421 36,000  Level Chicago Center
Wed 11:23:03 PM 41.5433 -87.4678 271° West 366 421 36,000  Level Chicago Center
Wed 11:24:05 PM 41.5450 -87.6019 271° West 365 420 36,000  Level Chicago Center
Wed 11:25:06 PM 41.5444 -87.7639 270° West 368 423 36,000  Level Chicago Center
Wed 11:26:07 PM 41.5456 -87.8967 271° West 364 419 36,000  Level Chicago Center
Wed 11:27:08 PM 41.5442 -88.0283 269° West 364 419 36,000  Level Chicago Center
Wed 11:28:09 PM 41.5458 -88.1592 271° West 363 418 36,000  Level Chicago Center
Wed 11:29:10 PM 41.5461 -88.2922 270° West 365 420 36,000  Level Chicago Center
Wed 11:30:11 PM 41.5497 -88.4289 272° West 370 426 36,000  Level Chicago Center
Wed 11:31:12 PM 41.5525 -88.5903 271° West 365 420 36,000  Level Chicago Center
Wed 11:32:13 PM 41.5550 -88.7283 271° West 371 427 36,000  Level Chicago Center
Wed 11:33:14 PM 41.5581 -88.8631 272° West 368 423 36,000  Level Chicago Center
Wed 11:34:15 PM 41.5597 -89.0006 271° West 370 426 36,000  Level Chicago Center
Wed 11:35:16 PM 41.5619 -89.1372 271° West 370 426 36,000  Level Chicago Center
Wed 11:36:17 PM 41.5639 -89.2744 271° West 372 428 36,000  Level Chicago Center
Wed 11:37:18 PM 41.5656 -89.4108 271° West 369 425 36,000  Level Chicago Center
Wed 11:38:19 PM 41.5669 -89.5536 271° West 369 425 36,000  Level Chicago Center
Wed 11:39:20 PM 41.5689 -89.6894 271° West 367 422 36,000  Level Chicago Center
Wed 11:40:21 PM 41.5692 -89.8264 270° West 369 425 36,000  Level Chicago Center
Wed 11:41:22 PM 41.5717 -89.9600 271° West 363 418 36,000  Level Chicago Center
Wed 11:42:22 PM 41.5708 -90.0969 270° West 369 425 36,000  Level Chicago Center
Wed 11:43:23 PM 41.5733 -90.2317 271° West 367 422 36,000  Level Chicago Center
Wed 11:44:24 PM 41.5717 -90.4008 269° West 379 436 36,000  Level Chicago Center
Wed 11:45:25 PM 41.5722 -90.5347 270° West 366 421 36,000  Level Chicago Center
Wed 11:46:26 PM 41.5719 -90.6744 270° West 365 420 36,000  Level Chicago Center
Wed 11:47:27 PM 41.5725 -90.8097 270° West 366 421 36,000  Level Chicago Center
Wed 11:48:28 PM 41.5722 -90.9439 270° West 365 420 36,000  Level Chicago Center
Wed 11:49:29 PM 41.5722 -91.0781 270° West 363 418 36,000 -443 Level Chicago Center
Wed 11:50:30 PM 41.5717 -91.2103 270° West 359 413 35,100 -1,388 Descending Chicago Center
Wed 11:51:30 PM 41.5706 -91.3389 269° West 351 404 33,200 -1,884 Descending Chicago Center
Wed 11:52:31 PM 41.5697 -91.4669 270° West 348 400 31,300 -1,869 Descending Chicago Center
Wed 11:53:32 PM 41.5694 -91.5969 270° West 351 404 29,400 -1,869 Descending Chicago Center
Wed 11:54:33 PM 41.5689 -91.7264 270° West 350 403 27,500 -1,918 Descending Chicago Center
Wed 11:55:34 PM 41.5661 -91.8625 268° West 355 409 25,500 -1,869 Descending Chicago Center
Wed 11:56:35 PM 41.5642 -92.0019 269° West 365 420 23,700 -1,967 Descending Chicago Center
Wed 11:57:36 PM 41.5625 -92.1708 269° West 374 430 21,500 -1,983 Descending Chicago Center
Wed 11:58:36 PM 41.5608 -92.2972 269° West 350 403 19,700 -1,785 Descending Chicago Center
Wed 11:59:37 PM 41.5586 -92.4203 269° West 335 386 17,900 -1,721 Descending Chicago Center
Thu 12:00:38 AM 41.5581 -92.5436 270° West 332 382 16,200 -1,770 Descending Chicago Center
Thu 12:01:39 AM 41.5539 -92.6625 267° West 326 375 14,300 -1,899 Descending Chicago Center
Thu 12:01:57 AM 41.5508 -92.7061 265° West 305 351 13,700 -1,823 Descending Minneapolis Center
Thu 12:02:58 AM 41.5433 -92.8136 265° West 293 337 11,900 -1,488 Descending Minneapolis Center
Thu 12:03:58 AM 41.5356 -92.9117 264° West 263 303 10,700 -1,118 Descending Minneapolis Center
Thu 12:04:40 AM 41.5375 -92.9603 273° West 237 273 10,000 -984 Descending Minneapolis Center
Thu 12:04:59 AM 41.5294 -92.9969 254° West 234 269 9,700 -1,000 Descending Minneapolis Center
Thu 12:05:40 AM 41.5303 -93.0475 271° West 233 268 9,000 -984 Descending Minneapolis Center
Thu 12:06:00 AM 41.5219 -93.0833 253° West 235 270 8,700 -1,082 Descending Minneapolis Center
Thu 12:06:41 AM 41.5225 -93.1317 271° West 229 264 7,900 -984 Descending Minneapolis Center
Thu 12:07:01 AM 41.5156 -93.1642 254° West 223 257 7,700 -984 Descending Minneapolis Center
Thu 12:07:42 AM 41.5167 -93.2128 272° West 224 258 6,900 -1,180 Descending Minneapolis Center
Thu 12:08:02 AM 41.5089 -93.2533 256° West 224 258 6,500 -1,200 Descending Minneapolis Center
Thu 12:08:42 AM 41.5108 -93.2942 274° West 222 255 5,700 -1,377 Descending Minneapolis Center
Thu 12:09:03 AM 41.5019 -93.3347 254° West 221 254 5,100 -1,377 Descending Minneapolis Center
Thu 12:09:43 AM 41.5028 -93.3756 272° West 222 255 4,300 -1,180 Descending Minneapolis Center
Thu 12:10:04 AM 41.4956 -93.4169 257° West 223 257 3,900 -1,200 Descending Minneapolis Center
Thu 12:10:43 AM 41.4972 -93.4650 273° West 224 258 3,100 -988 Descending Minneapolis Center
Thu 12:11:29 AM 41.4858 -93.5317 257° West 226 260 2,500 -590 Descending Minneapolis Center
Thu 12:11:44 AM 41.4889 -93.5464 285° West 223 257 2,500 -100 Level Minneapolis Center
Thu 12:12:29 AM 41.4906 -93.5939 273° West 165 190 2,400 -492 Descending Minneapolis Center
Thu 12:12:45 AM 41.5042 -93.5950 357° North 142 163 2,000 -904 Descending Minneapolis Center
Thu 12:13:42 AM 41.5181 -93.6342 295° West 121 139 1,300 -508 Descending Minneapolis Center
Thu 12:14:43 AM 41.5417 -93.6683 313° West 119 137 1,000 -295 Descending Minneapolis Center

Login

Don't have an account? Register now (free) for customized features, flight alerts, and more!